Terminal Aerodrome Forecast
Issued by NWS

Home | Current Version | Previous Version | Text Only | Print | Product List | Glossary On
Versions: 1 2 3 4 5 6 7 8 9 10 11 12 13
000
FTUS42 TJSJ 031746
TAFJMZ
TAF
TJMZ 031746Z 0318/0418 29004KT P6SM VCTS BKN040CB
      TEMPO 0318/0321 VRB15G20KT 5SM TSRA BKN030CB
     FM032200 06005KT P6SM FEW030 SCT060
     FM041330 28007KT P6SM FEW030=

USA.gov is the U.S. government's official web portal to all federal, state and local government web resources and services.